sensor_id;sensor_type;location;lat;lon;timestamp;P1;durP1;ratioP1;P2;durP2;ratioP2
32918;SDS011;19280;42.646;21.150;2023-04-03T00:00:30;11.40;;;6.70;;
32918;SDS011;19280;42.646;21.150;2023-04-03T00:02:56;16.10;;;7.13;;
32918;SDS011;19280;42.646;21.150;2023-04-03T00:05:22;14.10;;;7.30;;
32918;SDS011;19280;42.646;21.150;2023-04-03T00:07:48;15.95;;;8.07;;
32918;SDS011;19280;42.646;21.150;2023-04-03T00:10:15;12.23;;;6.70;;
32918;SDS011;19280;42.646;21.150;2023-04-03T00:12:41;9.88;;;6.05;;
32918;SDS011;19280;42.646;21.150;2023-04-03T00:15:07;14.93;;;6.50;;
32918;SDS011;19280;42.646;21.150;2023-04-03T00:17:33;14.98;;;6.30;;
32918;SDS011;19280;42.646;21.150;2023-04-03T00:20:00;11.20;;;6.60;;
32918;SDS011;19280;42.646;21.150;2023-04-03T00:22:26;10.25;;;6.45;;
32918;SDS011;19280;42.646;21.150;2023-04-03T00:24:53;13.27;;;6.72;;
32918;SDS011;19280;42.646;21.150;2023-04-03T00:27:19;10.05;;;6.35;;
32918;SDS011;19280;42.646;21.150;2023-04-03T00:29:45;10.65;;;6.18;;
32918;SDS011;19280;42.646;21.150;2023-04-03T00:32:12;20.63;;;7.03;;
32918;SDS011;19280;42.646;21.150;2023-04-03T00:34:38;14.40;;;7.07;;
32918;SDS011;19280;42.646;21.150;2023-04-03T00:37:04;13.25;;;6.47;;
32918;SDS011;19280;42.646;21.150;2023-04-03T00:39:31;10.35;;;6.78;;
32918;SDS011;19280;42.646;21.150;2023-04-03T00:41:57;18.42;;;9.80;;
32918;SDS011;19280;42.646;21.150;2023-04-03T00:47:05;12.38;;;7.75;;
32918;SDS011;19280;42.646;21.150;2023-04-03T00:49:32;20.10;;;8.82;;
32918;SDS011;19280;42.646;21.150;2023-04-03T00:51:58;13.80;;;8.32;;
32918;SDS011;19280;42.646;21.150;2023-04-03T00:54:25;16.27;;;9.02;;
32918;SDS011;19280;42.646;21.150;2023-04-03T00:56:51;20.80;;;8.70;;
32918;SDS011;19280;42.646;21.150;2023-04-03T00:59:20;17.65;;;8.98;;
32918;SDS011;19280;42.646;21.150;2023-04-03T01:01:50;15.25;;;8.48;;
32918;SDS011;19280;42.646;21.150;2023-04-03T01:04:29;24.17;;;8.40;;
32918;SDS011;19280;42.646;21.150;2023-04-03T01:06:56;16.58;;;9.43;;
32918;SDS011;19280;42.646;21.150;2023-04-03T01:09:23;14.50;;;8.00;;
32918;SDS011;19280;42.646;21.150;2023-04-03T01:11:50;13.10;;;6.90;;
32918;SDS011;19280;42.646;21.150;2023-04-03T01:14:16;13.77;;;7.13;;
32918;SDS011;19280;42.646;21.150;2023-04-03T01:16:42;12.25;;;6.43;;
32918;SDS011;19280;42.646;21.150;2023-04-03T01:19:09;17.50;;;9.38;;
32918;SDS011;19280;42.646;21.150;2023-04-03T01:24:42;16.95;;;9.52;;
32918;SDS011;19280;42.646;21.150;2023-04-03T01:27:07;17.85;;;8.32;;
32918;SDS011;19280;42.646;21.150;2023-04-03T01:29:35;19.40;;;8.43;;
32918;SDS011;19280;42.646;21.150;2023-04-03T01:32:01;16.38;;;8.60;;
32918;SDS011;19280;42.646;21.150;2023-04-03T01:34:28;15.57;;;8.18;;
32918;SDS011;19280;42.646;21.150;2023-04-03T01:36:54;17.85;;;7.75;;
32918;SDS011;19280;42.646;21.150;2023-04-03T01:39:21;15.00;;;7.95;;
32918;SDS011;19280;42.646;21.150;2023-04-03T01:41:47;13.18;;;7.20;;
32918;SDS011;19280;42.646;21.150;2023-04-03T01:44:14;17.30;;;8.07;;
32918;SDS011;19280;42.646;21.150;2023-04-03T01:46:40;17.02;;;7.75;;
32918;SDS011;19280;42.646;21.150;2023-04-03T01:49:07;15.85;;;7.53;;
32918;SDS011;19280;42.646;21.150;2023-04-03T01:51:33;18.45;;;9.18;;
32918;SDS011;19280;42.646;21.150;2023-04-03T01:53:59;12.90;;;7.55;;
32918;SDS011;19280;42.646;21.150;2023-04-03T01:56:26;20.40;;;8.65;;
32918;SDS011;19280;42.646;21.150;2023-04-03T01:58:52;19.58;;;8.50;;
32918;SDS011;19280;42.646;21.150;2023-04-03T02:01:18;12.10;;;7.35;;
32918;SDS011;19280;42.646;21.150;2023-04-03T02:03:44;14.05;;;8.13;;
32918;SDS011;19280;42.646;21.150;2023-04-03T02:06:10;13.25;;;7.85;;
32918;SDS011;19280;42.646;21.150;2023-04-03T02:08:36;11.30;;;7.60;;
32918;SDS011;19280;42.646;21.150;2023-04-03T02:11:02;21.77;;;7.75;;
32918;SDS011;19280;42.646;21.150;2023-04-03T02:13:28;11.38;;;7.20;;
32918;SDS011;19280;42.646;21.150;2023-04-03T02:15:54;13.20;;;8.07;;
32918;SDS011;19280;42.646;21.150;2023-04-03T02:18:20;16.45;;;8.65;;
32918;SDS011;19280;42.646;21.150;2023-04-03T02:20:46;13.55;;;8.25;;
32918;SDS011;19280;42.646;21.150;2023-04-03T02:23:13;24.88;;;10.85;;
32918;SDS011;19280;42.646;21.150;2023-04-03T02:25:39;18.70;;;10.02;;
32918;SDS011;19280;42.646;21.150;2023-04-03T02:28:05;14.40;;;10.32;;
32918;SDS011;19280;42.646;21.150;2023-04-03T02:30:31;15.90;;;9.40;;
32918;SDS011;19280;42.646;21.150;2023-04-03T02:32:57;17.50;;;10.57;;
32918;SDS011;19280;42.646;21.150;2023-04-03T02:35:23;15.15;;;9.38;;
32918;SDS011;19280;42.646;21.150;2023-04-03T02:37:50;13.40;;;8.30;;
32918;SDS011;19280;42.646;21.150;2023-04-03T02:40:16;11.95;;;7.97;;
32918;SDS011;19280;42.646;21.150;2023-04-03T02:42:42;12.27;;;8.13;;
32918;SDS011;19280;42.646;21.150;2023-04-03T02:45:08;13.10;;;7.95;;
32918;SDS011;19280;42.646;21.150;2023-04-03T02:47:34;13.38;;;8.07;;
32918;SDS011;19280;42.646;21.150;2023-04-03T02:50:00;13.25;;;7.95;;
32918;SDS011;19280;42.646;21.150;2023-04-03T02:52:26;13.63;;;8.23;;
32918;SDS011;19280;42.646;21.150;2023-04-03T02:54:52;14.05;;;7.60;;
32918;SDS011;19280;42.646;21.150;2023-04-03T02:57:18;21.50;;;13.30;;
32918;SDS011;19280;42.646;21.150;2023-04-03T02:59:44;36.28;;;18.05;;
32918;SDS011;19280;42.646;21.150;2023-04-03T03:02:11;27.02;;;13.73;;
32918;SDS011;19280;42.646;21.150;2023-04-03T03:04:37;17.83;;;11.48;;
32918;SDS011;19280;42.646;21.150;2023-04-03T03:07:03;20.20;;;11.85;;
32918;SDS011;19280;42.646;21.150;2023-04-03T03:09:29;14.82;;;8.95;;
32918;SDS011;19280;42.646;21.150;2023-04-03T03:11:56;13.70;;;8.90;;
32918;SDS011;19280;42.646;21.150;2023-04-03T03:14:22;14.95;;;8.85;;
32918;SDS011;19280;42.646;21.150;2023-04-03T03:16:48;17.08;;;9.65;;
32918;SDS011;19280;42.646;21.150;2023-04-03T03:19:15;20.55;;;9.10;;
32918;SDS011;19280;42.646;21.150;2023-04-03T03:21:41;16.88;;;9.25;;
32918;SDS011;19280;42.646;21.150;2023-04-03T03:24:07;14.75;;;8.40;;
32918;SDS011;19280;42.646;21.150;2023-04-03T03:26:34;18.73;;;8.75;;
32918;SDS011;19280;42.646;21.150;2023-04-03T03:29:00;13.20;;;8.25;;
32918;SDS011;19280;42.646;21.150;2023-04-03T03:31:26;17.20;;;8.80;;
32918;SDS011;19280;42.646;21.150;2023-04-03T03:33:52;18.40;;;8.38;;
32918;SDS011;19280;42.646;21.150;2023-04-03T03:36:18;14.30;;;8.23;;
32918;SDS011;19280;42.646;21.150;2023-04-03T03:38:45;18.08;;;8.18;;
32918;SDS011;19280;42.646;21.150;2023-04-03T03:41:11;16.20;;;8.45;;
32918;SDS011;19280;42.646;21.150;2023-04-03T03:43:37;14.20;;;8.45;;
32918;SDS011;19280;42.646;21.150;2023-04-03T03:46:03;12.55;;;7.68;;
32918;SDS011;19280;42.646;21.150;2023-04-03T03:48:29;15.90;;;8.73;;
32918;SDS011;19280;42.646;21.150;2023-04-03T03:50:55;15.60;;;8.93;;
32918;SDS011;19280;42.646;21.150;2023-04-03T03:53:21;17.30;;;9.05;;
32918;SDS011;19280;42.646;21.150;2023-04-03T03:55:47;15.40;;;9.77;;
32918;SDS011;19280;42.646;21.150;2023-04-03T03:58:13;14.05;;;8.55;;
32918;SDS011;19280;42.646;21.150;2023-04-03T04:00:39;14.82;;;8.52;;
32918;SDS011;19280;42.646;21.150;2023-04-03T04:03:05;14.55;;;7.88;;
32918;SDS011;19280;42.646;21.150;2023-04-03T04:05:31;13.98;;;8.45;;
32918;SDS011;19280;42.646;21.150;2023-04-03T04:07:57;11.75;;;8.25;;
32918;SDS011;19280;42.646;21.150;2023-04-03T04:10:23;16.02;;;9.40;;
32918;SDS011;19280;42.646;21.150;2023-04-03T04:12:50;21.67;;;10.70;;
32918;SDS011;19280;42.646;21.150;2023-04-03T04:15:16;14.40;;;9.45;;
32918;SDS011;19280;42.646;21.150;2023-04-03T04:17:43;20.73;;;11.70;;
32918;SDS011;19280;42.646;21.150;2023-04-03T04:20:09;18.17;;;12.18;;
32918;SDS011;19280;42.646;21.150;2023-04-03T04:22:35;18.75;;;11.98;;
32918;SDS011;19280;42.646;21.150;2023-04-03T04:25:02;18.52;;;11.95;;
32918;SDS011;19280;42.646;21.150;2023-04-03T04:27:28;23.23;;;11.98;;
32918;SDS011;19280;42.646;21.150;2023-04-03T04:29:54;16.27;;;11.65;;
32918;SDS011;19280;42.646;21.150;2023-04-03T04:32:20;20.05;;;11.48;;
32918;SDS011;19280;42.646;21.150;2023-04-03T04:34:47;15.73;;;10.50;;
32918;SDS011;19280;42.646;21.150;2023-04-03T04:37:13;17.17;;;10.60;;
32918;SDS011;19280;42.646;21.150;2023-04-03T04:39:39;19.30;;;11.38;;
32918;SDS011;19280;42.646;21.150;2023-04-03T04:42:05;19.25;;;10.95;;
32918;SDS011;19280;42.646;21.150;2023-04-03T04:44:32;22.10;;;10.60;;
32918;SDS011;19280;42.646;21.150;2023-04-03T04:46:58;16.75;;;11.52;;
32918;SDS011;19280;42.646;21.150;2023-04-03T04:49:24;18.83;;;11.75;;
32918;SDS011;19280;42.646;21.150;2023-04-03T04:51:50;19.35;;;11.65;;
32918;SDS011;19280;42.646;21.150;2023-04-03T04:54:16;18.67;;;11.90;;
32918;SDS011;19280;42.646;21.150;2023-04-03T04:56:42;19.77;;;12.73;;
32918;SDS011;19280;42.646;21.150;2023-04-03T04:59:08;16.63;;;10.98;;
32918;SDS011;19280;42.646;21.150;2023-04-03T05:01:34;19.60;;;11.57;;
32918;SDS011;19280;42.646;21.150;2023-04-03T05:04:01;19.17;;;10.95;;
32918;SDS011;19280;42.646;21.150;2023-04-03T05:06:27;21.05;;;10.73;;
32918;SDS011;19280;42.646;21.150;2023-04-03T05:08:55;20.05;;;9.68;;
32918;SDS011;19280;42.646;21.150;2023-04-03T05:11:21;21.23;;;8.98;;
32918;SDS011;19280;42.646;21.150;2023-04-03T05:13:47;17.08;;;8.90;;
32918;SDS011;19280;42.646;21.150;2023-04-03T05:16:13;21.83;;;8.35;;
32918;SDS011;19280;42.646;21.150;2023-04-03T05:18:39;9.70;;;7.63;;
32918;SDS011;19280;42.646;21.150;2023-04-03T05:21:05;9.07;;;6.95;;
32918;SDS011;19280;42.646;21.150;2023-04-03T05:23:31;12.13;;;6.93;;
32918;SDS011;19280;42.646;21.150;2023-04-03T05:25:57;8.23;;;6.05;;
32918;SDS011;19280;42.646;21.150;2023-04-03T05:28:23;7.45;;;6.28;;
32918;SDS011;19280;42.646;21.150;2023-04-03T05:30:53;11.82;;;5.97;;
32918;SDS011;19280;42.646;21.150;2023-04-03T05:33:20;16.90;;;7.35;;
32918;SDS011;19280;42.646;21.150;2023-04-03T05:35:46;20.60;;;10.30;;
32918;SDS011;19280;42.646;21.150;2023-04-03T05:38:12;24.25;;;10.55;;
32918;SDS011;19280;42.646;21.150;2023-04-03T05:40:38;17.00;;;10.40;;
32918;SDS011;19280;42.646;21.150;2023-04-03T05:43:04;18.15;;;9.63;;
32918;SDS011;19280;42.646;21.150;2023-04-03T05:45:30;16.63;;;10.68;;
32918;SDS011;19280;42.646;21.150;2023-04-03T05:47:56;19.35;;;10.85;;
32918;SDS011;19280;42.646;21.150;2023-04-03T05:50:22;22.85;;;12.00;;
32918;SDS011;19280;42.646;21.150;2023-04-03T05:52:49;23.38;;;12.02;;
32918;SDS011;19280;42.646;21.150;2023-04-03T05:55:15;28.63;;;12.68;;
32918;SDS011;19280;42.646;21.150;2023-04-03T05:57:41;15.38;;;10.40;;
32918;SDS011;19280;42.646;21.150;2023-04-03T06:00:08;15.82;;;10.10;;
32918;SDS011;19280;42.646;21.150;2023-04-03T06:02:34;22.58;;;9.50;;
32918;SDS011;19280;42.646;21.150;2023-04-03T06:05:01;26.75;;;8.20;;
32918;SDS011;19280;42.646;21.150;2023-04-03T06:07:27;17.25;;;8.82;;
32918;SDS011;19280;42.646;21.150;2023-04-03T06:09:54;9.40;;;6.90;;
32918;SDS011;19280;42.646;21.150;2023-04-03T06:12:20;9.30;;;6.80;;
32918;SDS011;19280;42.646;21.150;2023-04-03T06:14:47;9.00;;;6.40;;
32918;SDS011;19280;42.646;21.150;2023-04-03T06:17:14;7.65;;;6.70;;
32918;SDS011;19280;42.646;21.150;2023-04-03T06:19:40;7.57;;;6.28;;
32918;SDS011;19280;42.646;21.150;2023-04-03T06:22:07;9.07;;;5.85;;
32918;SDS011;19280;42.646;21.150;2023-04-03T06:24:33;7.13;;;5.93;;
32918;SDS011;19280;42.646;21.150;2023-04-03T06:26:59;7.95;;;5.63;;
32918;SDS011;19280;42.646;21.150;2023-04-03T06:29:25;7.85;;;5.40;;
32918;SDS011;19280;42.646;21.150;2023-04-03T06:31:51;6.68;;;5.18;;
32918;SDS011;19280;42.646;21.150;2023-04-03T06:34:17;7.93;;;6.13;;
32918;SDS011;19280;42.646;21.150;2023-04-03T06:36:44;12.13;;;5.90;;
32918;SDS011;19280;42.646;21.150;2023-04-03T06:39:14;8.52;;;6.80;;
32918;SDS011;19280;42.646;21.150;2023-04-03T06:41:41;14.55;;;7.07;;
32918;SDS011;19280;42.646;21.150;2023-04-03T06:44:07;12.10;;;6.25;;
32918;SDS011;19280;42.646;21.150;2023-04-03T06:46:36;11.30;;;6.63;;
32918;SDS011;19280;42.646;21.150;2023-04-03T06:49:02;8.98;;;7.22;;
32918;SDS011;19280;42.646;21.150;2023-04-03T06:51:29;7.65;;;5.68;;
32918;SDS011;19280;42.646;21.150;2023-04-03T06:53:56;8.55;;;6.30;;
32918;SDS011;19280;42.646;21.150;2023-04-03T06:56:22;14.10;;;6.18;;
32918;SDS011;19280;42.646;21.150;2023-04-03T06:58:50;7.10;;;5.88;;
32918;SDS011;19280;42.646;21.150;2023-04-03T07:01:16;7.57;;;5.82;;
32918;SDS011;19280;42.646;21.150;2023-04-03T07:03:44;11.15;;;5.90;;
32918;SDS011;19280;42.646;21.150;2023-04-03T07:06:11;7.95;;;4.10;;
32918;SDS011;19280;42.646;21.150;2023-04-03T07:08:38;6.45;;;4.85;;
32918;SDS011;19280;42.646;21.150;2023-04-03T07:11:04;6.72;;;4.35;;
32918;SDS011;19280;42.646;21.150;2023-04-03T07:13:31;7.95;;;5.07;;
32918;SDS011;19280;42.646;21.150;2023-04-03T07:15:57;5.55;;;4.65;;
32918;SDS011;19280;42.646;21.150;2023-04-03T07:18:24;8.00;;;5.53;;
32918;SDS011;19280;42.646;21.150;2023-04-03T07:20:50;7.82;;;5.72;;
32918;SDS011;19280;42.646;21.150;2023-04-03T07:23:16;7.60;;;5.35;;
32918;SDS011;19280;42.646;21.150;2023-04-03T07:25:43;7.55;;;5.65;;
32918;SDS011;19280;42.646;21.150;2023-04-03T07:28:09;6.95;;;5.15;;
32918;SDS011;19280;42.646;21.150;2023-04-03T07:30:41;6.68;;;4.63;;
32918;SDS011;19280;42.646;21.150;2023-04-03T07:33:07;8.00;;;5.27;;
32918;SDS011;19280;42.646;21.150;2023-04-03T07:35:33;4.63;;;4.05;;
32918;SDS011;19280;42.646;21.150;2023-04-03T07:37:59;6.28;;;4.90;;
32918;SDS011;19280;42.646;21.150;2023-04-03T07:40:26;6.40;;;4.90;;
32918;SDS011;19280;42.646;21.150;2023-04-03T07:42:52;11.05;;;5.35;;
32918;SDS011;19280;42.646;21.150;2023-04-03T07:45:18;6.60;;;4.80;;
32918;SDS011;19280;42.646;21.150;2023-04-03T07:47:44;7.50;;;5.25;;
32918;SDS011;19280;42.646;21.150;2023-04-03T07:50:10;7.20;;;5.03;;
32918;SDS011;19280;42.646;21.150;2023-04-03T07:52:36;7.82;;;5.30;;
32918;SDS011;19280;42.646;21.150;2023-04-03T07:55:02;7.03;;;4.85;;
32918;SDS011;19280;42.646;21.150;2023-04-03T07:57:28;19.67;;;8.32;;
32918;SDS011;19280;42.646;21.150;2023-04-03T07:59:54;10.60;;;7.70;;
32918;SDS011;19280;42.646;21.150;2023-04-03T08:02:21;11.88;;;7.65;;
32918;SDS011;19280;42.646;21.150;2023-04-03T08:04:47;9.30;;;7.60;;
32918;SDS011;19280;42.646;21.150;2023-04-03T08:07:13;9.95;;;7.80;;
32918;SDS011;19280;42.646;21.150;2023-04-03T08:09:39;12.82;;;8.77;;
32918;SDS011;19280;42.646;21.150;2023-04-03T08:12:05;14.60;;;10.38;;
32918;SDS011;19280;42.646;21.150;2023-04-03T08:14:31;13.45;;;10.55;;
32918;SDS011;19280;42.646;21.150;2023-04-03T08:16:59;14.57;;;10.38;;
32918;SDS011;19280;42.646;21.150;2023-04-03T08:19:26;18.42;;;11.35;;
32918;SDS011;19280;42.646;21.150;2023-04-03T08:21:53;17.05;;;11.35;;
32918;SDS011;19280;42.646;21.150;2023-04-03T08:24:19;15.10;;;11.45;;
32918;SDS011;19280;42.646;21.150;2023-04-03T08:26:45;18.25;;;12.52;;
32918;SDS011;19280;42.646;21.150;2023-04-03T08:29:11;16.67;;;11.90;;
32918;SDS011;19280;42.646;21.150;2023-04-03T08:31:38;16.90;;;11.95;;
32918;SDS011;19280;42.646;21.150;2023-04-03T08:34:04;18.38;;;12.50;;
32918;SDS011;19280;42.646;21.150;2023-04-03T08:36:30;21.15;;;13.05;;
32918;SDS011;19280;42.646;21.150;2023-04-03T08:38:56;19.33;;;13.30;;
32918;SDS011;19280;42.646;21.150;2023-04-03T08:41:29;18.42;;;13.43;;
32918;SDS011;19280;42.646;21.150;2023-04-03T08:44:18;22.40;;;14.13;;
32918;SDS011;19280;42.646;21.150;2023-04-03T08:51:56;23.45;;;15.77;;
32918;SDS011;19280;42.646;21.150;2023-04-03T08:54:33;22.20;;;15.85;;
32918;SDS011;19280;42.646;21.150;2023-04-03T08:57:02;26.20;;;15.82;;
32918;SDS011;19280;42.646;21.150;2023-04-03T08:59:29;22.95;;;16.13;;
32918;SDS011;19280;42.646;21.150;2023-04-03T09:01:57;25.25;;;18.83;;
32918;SDS011;19280;42.646;21.150;2023-04-03T09:04:25;28.90;;;17.27;;
32918;SDS011;19280;42.646;21.150;2023-04-03T09:06:53;31.65;;;19.23;;
32918;SDS011;19280;42.646;21.150;2023-04-03T09:09:30;23.63;;;18.25;;
32918;SDS011;19280;42.646;21.150;2023-04-03T09:14:38;29.42;;;19.17;;
32918;SDS011;19280;42.646;21.150;2023-04-03T09:20:09;26.88;;;17.48;;
32918;SDS011;19280;42.646;21.150;2023-04-03T09:22:36;23.05;;;17.05;;
32918;SDS011;19280;42.646;21.150;2023-04-03T09:25:15;25.77;;;16.05;;
32918;SDS011;19280;42.646;21.150;2023-04-03T09:27:42;25.23;;;17.25;;
32918;SDS011;19280;42.646;21.150;2023-04-03T09:30:15;26.25;;;16.75;;
32918;SDS011;19280;42.646;21.150;2023-04-03T09:32:43;21.90;;;15.57;;
32918;SDS011;19280;42.646;21.150;2023-04-03T09:37:43;30.08;;;17.63;;
32918;SDS011;19280;42.646;21.150;2023-04-03T09:42:52;15.02;;;12.05;;
32918;SDS011;19280;42.646;21.150;2023-04-03T09:45:22;19.52;;;12.23;;
32918;SDS011;19280;42.646;21.150;2023-04-03T09:47:50;19.63;;;10.38;;
32918;SDS011;19280;42.646;21.150;2023-04-03T09:50:29;17.73;;;12.10;;
32918;SDS011;19280;42.646;21.150;2023-04-03T09:52:55;13.65;;;9.80;;
32918;SDS011;19280;42.646;21.150;2023-04-03T09:55:22;12.98;;;9.32;;
32918;SDS011;19280;42.646;21.150;2023-04-03T09:57:52;14.07;;;8.23;;
32918;SDS011;19280;42.646;21.150;2023-04-03T10:00:20;14.63;;;8.52;;
32918;SDS011;19280;42.646;21.150;2023-04-03T10:02:48;19.48;;;9.20;;
32918;SDS011;19280;42.646;21.150;2023-04-03T10:08:07;12.80;;;8.98;;
32918;SDS011;19280;42.646;21.150;2023-04-03T10:10:33;11.20;;;7.57;;
32918;SDS011;19280;42.646;21.150;2023-04-03T10:13:12;16.33;;;9.77;;
32918;SDS011;19280;42.646;21.150;2023-04-03T10:16:03;12.73;;;8.90;;
32918;SDS011;19280;42.646;21.150;2023-04-03T10:18:49;15.18;;;8.50;;
32918;SDS011;19280;42.646;21.150;2023-04-03T10:29:07;11.45;;;7.18;;
32918;SDS011;19280;42.646;21.150;2023-04-03T10:32:14;10.65;;;6.40;;
32918;SDS011;19280;42.646;21.150;2023-04-03T10:34:38;9.07;;;6.28;;
32918;SDS011;19280;42.646;21.150;2023-04-03T10:37:26;9.30;;;6.55;;
32918;SDS011;19280;42.646;21.150;2023-04-03T10:39:54;34.83;;;21.80;;
32918;SDS011;19280;42.646;21.150;2023-04-03T10:42:26;22.23;;;12.52;;
32918;SDS011;19280;42.646;21.150;2023-04-03T10:47:49;22.45;;;13.90;;
32918;SDS011;19280;42.646;21.150;2023-04-03T10:53:05;9.03;;;5.70;;
32918;SDS011;19280;42.646;21.150;2023-04-03T10:55:46;15.55;;;7.90;;
32918;SDS011;19280;42.646;21.150;2023-04-03T11:00:55;13.05;;;8.75;;
32918;SDS011;19280;42.646;21.150;2023-04-03T11:03:35;18.33;;;7.72;;
32918;SDS011;19280;42.646;21.150;2023-04-03T11:06:04;11.73;;;7.30;;
32918;SDS011;19280;42.646;21.150;2023-04-03T11:08:38;13.77;;;7.53;;
32918;SDS011;19280;42.646;21.150;2023-04-03T11:11:09;16.23;;;7.60;;
32918;SDS011;19280;42.646;21.150;2023-04-03T11:13:39;14.55;;;8.02;;
32918;SDS011;19280;42.646;21.150;2023-04-03T11:16:06;14.27;;;6.78;;
32918;SDS011;19280;42.646;21.150;2023-04-03T11:18:37;12.70;;;7.78;;
32918;SDS011;19280;42.646;21.150;2023-04-03T11:21:07;16.58;;;9.88;;
32918;SDS011;19280;42.646;21.150;2023-04-03T11:23:35;13.07;;;7.38;;
32918;SDS011;19280;42.646;21.150;2023-04-03T11:26:11;12.73;;;7.55;;
32918;SDS011;19280;42.646;21.150;2023-04-03T11:28:40;11.88;;;6.65;;
32918;SDS011;19280;42.646;21.150;2023-04-03T11:31:23;12.05;;;7.43;;
32918;SDS011;19280;42.646;21.150;2023-04-03T11:34:05;12.35;;;6.55;;
32918;SDS011;19280;42.646;21.150;2023-04-03T11:36:37;10.48;;;7.28;;
32918;SDS011;19280;42.646;21.150;2023-04-03T11:44:48;12.30;;;7.03;;
32918;SDS011;19280;42.646;21.150;2023-04-03T11:47:43;15.20;;;7.68;;
32918;SDS011;19280;42.646;21.150;2023-04-03T11:50:02;12.05;;;8.38;;
32918;SDS011;19280;42.646;21.150;2023-04-03T12:05:53;20.27;;;8.90;;
32918;SDS011;19280;42.646;21.150;2023-04-03T12:13:33;18.63;;;7.82;;
32918;SDS011;19280;42.646;21.150;2023-04-03T12:15:59;14.18;;;8.00;;
32918;SDS011;19280;42.646;21.150;2023-04-03T12:21:36;13.90;;;9.35;;
32918;SDS011;19280;42.646;21.150;2023-04-03T12:29:03;11.23;;;7.40;;
32918;SDS011;19280;42.646;21.150;2023-04-03T12:31:39;16.67;;;9.48;;
32918;SDS011;19280;42.646;21.150;2023-04-03T12:34:14;17.23;;;8.05;;
32918;SDS011;19280;42.646;21.150;2023-04-03T12:39:52;13.95;;;8.63;;
32918;SDS011;19280;42.646;21.150;2023-04-03T12:45:21;19.55;;;9.82;;
32918;SDS011;19280;42.646;21.150;2023-04-03T12:47:49;17.08;;;9.70;;
32918;SDS011;19280;42.646;21.150;2023-04-03T12:50:25;20.52;;;10.55;;
32918;SDS011;19280;42.646;21.150;2023-04-03T12:53:01;19.45;;;9.95;;
32918;SDS011;19280;42.646;21.150;2023-04-03T12:55:30;18.48;;;11.10;;
32918;SDS011;19280;42.646;21.150;2023-04-03T12:57:56;16.42;;;10.50;;
32918;SDS011;19280;42.646;21.150;2023-04-03T13:02:51;14.27;;;8.60;;
32918;SDS011;19280;42.646;21.150;2023-04-03T13:05:18;18.88;;;10.52;;
32918;SDS011;19280;42.646;21.150;2023-04-03T13:07:45;18.45;;;9.52;;
32918;SDS011;19280;42.646;21.150;2023-04-03T13:10:15;17.42;;;10.05;;
32918;SDS011;19280;42.646;21.150;2023-04-03T13:12:48;19.70;;;9.57;;
32918;SDS011;19280;42.646;21.150;2023-04-03T13:15:26;19.38;;;10.10;;
32918;SDS011;19280;42.646;21.150;2023-04-03T13:17:53;20.58;;;12.73;;
32918;SDS011;19280;42.646;21.150;2023-04-03T13:22:49;19.55;;;11.82;;
32918;SDS011;19280;42.646;21.150;2023-04-03T13:25:17;19.08;;;11.68;;
32918;SDS011;19280;42.646;21.150;2023-04-03T13:27:43;19.98;;;11.93;;
32918;SDS011;19280;42.646;21.150;2023-04-03T13:30:20;18.30;;;12.00;;
32918;SDS011;19280;42.646;21.150;2023-04-03T13:32:47;22.45;;;11.23;;
32918;SDS011;19280;42.646;21.150;2023-04-03T13:35:24;24.58;;;14.57;;
32918;SDS011;19280;42.646;21.150;2023-04-03T13:37:54;28.05;;;14.43;;
32918;SDS011;19280;42.646;21.150;2023-04-03T13:40:21;20.77;;;13.95;;
32918;SDS011;19280;42.646;21.150;2023-04-03T13:42:57;20.10;;;12.50;;
32918;SDS011;19280;42.646;21.150;2023-04-03T13:45:24;23.13;;;15.63;;
32918;SDS011;19280;42.646;21.150;2023-04-03T13:47:54;28.75;;;15.40;;
32918;SDS011;19280;42.646;21.150;2023-04-03T13:50:32;36.08;;;20.30;;
32918;SDS011;19280;42.646;21.150;2023-04-03T13:53:03;27.23;;;14.20;;
32918;SDS011;19280;42.646;21.150;2023-04-03T13:55:35;33.28;;;17.95;;
32918;SDS011;19280;42.646;21.150;2023-04-03T14:02:56;34.75;;;13.00;;
32918;SDS011;19280;42.646;21.150;2023-04-03T14:05:23;22.00;;;13.57;;
32918;SDS011;19280;42.646;21.150;2023-04-03T14:07:50;25.60;;;14.75;;
32918;SDS011;19280;42.646;21.150;2023-04-03T14:10:16;22.83;;;12.68;;
32918;SDS011;19280;42.646;21.150;2023-04-03T14:12:43;25.77;;;15.32;;
32918;SDS011;19280;42.646;21.150;2023-04-03T14:15:18;22.95;;;13.65;;
32918;SDS011;19280;42.646;21.150;2023-04-03T14:17:44;16.83;;;9.98;;
32918;SDS011;19280;42.646;21.150;2023-04-03T14:20:14;21.75;;;12.52;;
32918;SDS011;19280;42.646;21.150;2023-04-03T14:22:41;18.80;;;11.23;;
32918;SDS011;19280;42.646;21.150;2023-04-03T14:25:07;24.73;;;14.88;;
32918;SDS011;19280;42.646;21.150;2023-04-03T14:27:35;18.95;;;11.90;;
32918;SDS011;19280;42.646;21.150;2023-04-03T14:30:03;19.00;;;10.40;;
32918;SDS011;19280;42.646;21.150;2023-04-03T14:32:29;17.88;;;9.80;;
32918;SDS011;19280;42.646;21.150;2023-04-03T14:34:55;18.48;;;11.90;;
32918;SDS011;19280;42.646;21.150;2023-04-03T14:37:24;19.20;;;10.43;;
32918;SDS011;19280;42.646;21.150;2023-04-03T14:39:51;24.58;;;10.55;;
32918;SDS011;19280;42.646;21.150;2023-04-03T14:42:25;16.38;;;9.90;;
32918;SDS011;19280;42.646;21.150;2023-04-03T14:44:51;13.35;;;8.38;;
32918;SDS011;19280;42.646;21.150;2023-04-03T14:47:23;18.48;;;9.75;;
32918;SDS011;19280;42.646;21.150;2023-04-03T14:49:49;14.13;;;7.53;;
32918;SDS011;19280;42.646;21.150;2023-04-03T14:52:23;14.43;;;9.82;;
32918;SDS011;19280;42.646;21.150;2023-04-03T14:54:50;16.73;;;8.95;;
32918;SDS011;19280;42.646;21.150;2023-04-03T14:57:16;16.25;;;9.18;;
32918;SDS011;19280;42.646;21.150;2023-04-03T14:59:43;10.32;;;6.55;;
32918;SDS011;19280;42.646;21.150;2023-04-03T15:04:48;12.95;;;8.63;;
32918;SDS011;19280;42.646;21.150;2023-04-03T15:07:14;13.95;;;8.50;;
32918;SDS011;19280;42.646;21.150;2023-04-03T15:09:41;10.15;;;6.47;;
32918;SDS011;19280;42.646;21.150;2023-04-03T15:12:08;11.90;;;8.07;;
32918;SDS011;19280;42.646;21.150;2023-04-03T15:14:34;16.60;;;8.85;;
32918;SDS011;19280;42.646;21.150;2023-04-03T15:17:00;96.35;;;28.95;;
32918;SDS011;19280;42.646;21.150;2023-04-03T15:19:27;14.60;;;8.45;;
32918;SDS011;19280;42.646;21.150;2023-04-03T15:21:53;18.33;;;7.50;;
32918;SDS011;19280;42.646;21.150;2023-04-03T15:24:19;18.92;;;8.65;;
32918;SDS011;19280;42.646;21.150;2023-04-03T15:26:45;11.30;;;6.45;;
32918;SDS011;19280;42.646;21.150;2023-04-03T15:29:11;11.48;;;7.07;;
32918;SDS011;19280;42.646;21.150;2023-04-03T15:31:37;26.75;;;16.40;;
32918;SDS011;19280;42.646;21.150;2023-04-03T15:34:03;13.63;;;7.28;;
32918;SDS011;19280;42.646;21.150;2023-04-03T15:36:29;14.20;;;8.43;;
32918;SDS011;19280;42.646;21.150;2023-04-03T15:38:55;15.70;;;8.00;;
32918;SDS011;19280;42.646;21.150;2023-04-03T15:41:21;15.90;;;7.47;;
32918;SDS011;19280;42.646;21.150;2023-04-03T15:43:47;12.65;;;7.78;;
32918;SDS011;19280;42.646;21.150;2023-04-03T15:46:13;12.65;;;7.35;;
32918;SDS011;19280;42.646;21.150;2023-04-03T15:48:40;14.95;;;8.25;;
32918;SDS011;19280;42.646;21.150;2023-04-03T15:51:06;12.65;;;7.40;;
32918;SDS011;19280;42.646;21.150;2023-04-03T15:53:32;8.73;;;5.60;;